sensor_id;sensor_type;location;lat;lon;timestamp;pressure;altitude;pressure_sealevel;temperature;humidity
44148;BME280;29810;55.848;37.368;2023-03-07T00:01:48;97702.25;;;-3.02;74.71
44148;BME280;29810;55.848;37.368;2023-03-07T00:04:51;97702.31;;;-3.11;74.21
44148;BME280;29810;55.848;37.368;2023-03-07T00:07:52;97699.81;;;-3.22;74.16
44148;BME280;29810;55.848;37.368;2023-03-07T00:10:54;97701.59;;;-3.33;74.05
44148;BME280;29810;55.848;37.368;2023-03-07T00:13:56;97702.44;;;-3.39;74.00
44148;BME280;29810;55.848;37.368;2023-03-07T00:16:58;97699.91;;;-3.37;74.90
44148;BME280;29810;55.848;37.368;2023-03-07T00:19:59;97710.03;;;-3.23;74.49
44148;BME280;29810;55.848;37.368;2023-03-07T00:23:01;97702.47;;;-3.40;73.83
44148;BME280;29810;55.848;37.368;2023-03-07T00:26:12;97694.84;;;-3.42;74.62
44148;BME280;29810;55.848;37.368;2023-03-07T00:29:15;97698.19;;;-3.34;74.75
44148;BME280;29810;55.848;37.368;2023-03-07T00:32:16;97695.56;;;-3.21;74.32
44148;BME280;29810;55.848;37.368;2023-03-07T00:35:18;97700.63;;;-3.12;73.69
44148;BME280;29810;55.848;37.368;2023-03-07T00:38:19;97692.06;;;-3.05;74.44
44148;BME280;29810;55.848;37.368;2023-03-07T00:41:24;97697.97;;;-3.00;74.47
44148;BME280;29810;55.848;37.368;2023-03-07T00:44:26;97701.38;;;-3.01;73.98
44148;BME280;29810;55.848;37.368;2023-03-07T00:47:30;97693.72;;;-2.97;75.09
44148;BME280;29810;55.848;37.368;2023-03-07T00:50:35;97691.19;;;-2.99;74.93
44148;BME280;29810;55.848;37.368;2023-03-07T00:53:38;97686.97;;;-3.03;74.90
44148;BME280;29810;55.848;37.368;2023-03-07T00:56:40;97696.22;;;-2.93;75.07
44148;BME280;29810;55.848;37.368;2023-03-07T00:59:42;97691.13;;;-2.93;74.43
44148;BME280;29810;55.848;37.368;2023-03-07T01:02:43;97693.69;;;-2.94;74.80
44148;BME280;29810;55.848;37.368;2023-03-07T01:05:45;97689.53;;;-3.03;75.10
44148;BME280;29810;55.848;37.368;2023-03-07T01:08:46;97689.56;;;-3.14;75.37
44148;BME280;29810;55.848;37.368;2023-03-07T01:11:49;97692.16;;;-3.19;75.93
44148;BME280;29810;55.848;37.368;2023-03-07T01:14:51;97690.47;;;-3.24;76.32
44148;BME280;29810;55.848;37.368;2023-03-07T01:17:53;97686.31;;;-3.33;76.39
44148;BME280;29810;55.848;37.368;2023-03-07T01:20:55;97689.81;;;-3.57;76.67
44148;BME280;29810;55.848;37.368;2023-03-07T01:23:57;97693.28;;;-3.72;77.42
44148;BME280;29810;55.848;37.368;2023-03-07T01:26:58;97700.94;;;-3.80;77.92
44148;BME280;29810;55.848;37.368;2023-03-07T01:30:04;97691.63;;;-3.86;78.39
44148;BME280;29810;55.848;37.368;2023-03-07T01:33:06;97685.75;;;-3.98;78.70
44148;BME280;29810;55.848;37.368;2023-03-07T01:36:18;97690.84;;;-3.98;79.04
44148;BME280;29810;55.848;37.368;2023-03-07T01:39:21;97691.66;;;-3.92;80.14
44148;BME280;29810;55.848;37.368;2023-03-07T01:42:23;97693.31;;;-3.78;79.70
44148;BME280;29810;55.848;37.368;2023-03-07T01:48:34;97690.63;;;-3.47;79.58
44148;BME280;29810;55.848;37.368;2023-03-07T01:51:38;97687.28;;;-3.63;78.58
44148;BME280;29810;55.848;37.368;2023-03-07T01:54:45;97689.78;;;-3.56;79.46
44148;BME280;29810;55.848;37.368;2023-03-07T01:57:50;97695.72;;;-3.46;79.32
44148;BME280;29810;55.848;37.368;2023-03-07T02:00:53;97683.81;;;-3.47;78.45
44148;BME280;29810;55.848;37.368;2023-03-07T02:04:15;97693.16;;;-3.51;78.36
44148;BME280;29810;55.848;37.368;2023-03-07T02:07:19;97694.03;;;-3.50;78.50
44148;BME280;29810;55.848;37.368;2023-03-07T02:10:24;97696.63;;;-3.58;78.36
44148;BME280;29810;55.848;37.368;2023-03-07T02:13:25;97690.66;;;-3.58;78.85
44148;BME280;29810;55.848;37.368;2023-03-07T02:16:27;97689.72;;;-3.40;78.99
44148;BME280;29810;55.848;37.368;2023-03-07T02:20:09;97695.62;;;-3.30;78.28
44148;BME280;29810;55.848;37.368;2023-03-07T02:26:45;97682.88;;;-3.32;78.48
44148;BME280;29810;55.848;37.368;2023-03-07T02:29:48;97694.66;;;-3.14;78.52
44148;BME280;29810;55.848;37.368;2023-03-07T02:32:49;97687.97;;;-3.32;77.61
44148;BME280;29810;55.848;37.368;2023-03-07T02:35:54;97675.25;;;-3.34;77.85
44148;BME280;29810;55.848;37.368;2023-03-07T02:38:56;97687.03;;;-3.14;77.70
44148;BME280;29810;55.848;37.368;2023-03-07T02:42:04;97679.34;;;-3.09;77.46
44148;BME280;29810;55.848;37.368;2023-03-07T02:45:12;97683.47;;;-2.94;77.19
44148;BME280;29810;55.848;37.368;2023-03-07T02:48:15;97679.25;;;-2.97;76.18
44148;BME280;29810;55.848;37.368;2023-03-07T02:51:16;97688.62;;;-3.01;76.18
44148;BME280;29810;55.848;37.368;2023-03-07T02:54:18;97690.38;;;-3.09;76.38
44148;BME280;29810;55.848;37.368;2023-03-07T02:57:21;97691.31;;;-3.16;76.92
44148;BME280;29810;55.848;37.368;2023-03-07T03:00:23;97687.94;;;-3.24;77.13
44148;BME280;29810;55.848;37.368;2023-03-07T03:03:25;97692.16;;;-3.20;77.06
44148;BME280;29810;55.848;37.368;2023-03-07T03:06:26;97687.91;;;-3.18;77.04
44148;BME280;29810;55.848;37.368;2023-03-07T03:09:28;97693.00;;;-3.18;76.36
44148;BME280;29810;55.848;37.368;2023-03-07T03:12:29;97697.31;;;-3.29;76.81
44148;BME280;29810;55.848;37.368;2023-03-07T03:15:32;97691.34;;;-3.24;77.23
44148;BME280;29810;55.848;37.368;2023-03-07T03:18:34;97689.66;;;-3.25;76.22
44148;BME280;29810;55.848;37.368;2023-03-07T03:21:35;97685.44;;;-3.34;76.35
44148;BME280;29810;55.848;37.368;2023-03-07T03:24:39;97690.53;;;-3.34;75.85
44148;BME280;29810;55.848;37.368;2023-03-07T03:27:41;97689.66;;;-3.29;76.19
44148;BME280;29810;55.848;37.368;2023-03-07T03:30:43;97688.72;;;-3.13;76.77
44148;BME280;29810;55.848;37.368;2023-03-07T03:33:45;97693.78;;;-3.07;76.39
44148;BME280;29810;55.848;37.368;2023-03-07T03:36:49;97693.81;;;-3.11;76.21
44148;BME280;29810;55.848;37.368;2023-03-07T03:39:52;97687.03;;;-3.14;76.01
44148;BME280;29810;55.848;37.368;2023-03-07T03:42:54;97698.87;;;-3.10;75.14
44148;BME280;29810;55.848;37.368;2023-03-07T03:45:58;97689.66;;;-3.29;75.21
44148;BME280;29810;55.848;37.368;2023-03-07T03:49:00;97688.94;;;-3.50;75.34
44148;BME280;29810;55.848;37.368;2023-03-07T03:52:03;97695.72;;;-3.52;75.86
44148;BME280;29810;55.848;37.368;2023-03-07T03:55:05;97702.50;;;-3.45;76.23
44148;BME280;29810;55.848;37.368;2023-03-07T03:58:07;97693.13;;;-3.38;76.45
44148;BME280;29810;55.848;37.368;2023-03-07T04:01:11;97702.34;;;-3.20;76.14
44148;BME280;29810;55.848;37.368;2023-03-07T04:04:13;97699.78;;;-3.20;75.76
44148;BME280;29810;55.848;37.368;2023-03-07T04:07:16;97699.00;;;-3.28;75.39
44148;BME280;29810;55.848;37.368;2023-03-07T04:10:19;97692.25;;;-3.36;75.30
44148;BME280;29810;55.848;37.368;2023-03-07T04:13:21;97687.22;;;-3.45;74.96
44148;BME280;29810;55.848;37.368;2023-03-07T04:16:24;97710.97;;;-3.43;75.18
44148;BME280;29810;55.848;37.368;2023-03-07T04:19:26;97703.41;;;-3.58;75.19
44148;BME280;29810;55.848;37.368;2023-03-07T04:22:29;97711.03;;;-3.54;75.63
44148;BME280;29810;55.848;37.368;2023-03-07T04:25:31;97708.44;;;-3.46;75.44
44148;BME280;29810;55.848;37.368;2023-03-07T04:28:38;97711.81;;;-3.44;75.42
44148;BME280;29810;55.848;37.368;2023-03-07T04:31:46;97720.31;;;-3.36;75.23
44148;BME280;29810;55.848;37.368;2023-03-07T04:34:48;97720.28;;;-3.33;74.96
44148;BME280;29810;55.848;37.368;2023-03-07T04:37:51;97715.19;;;-3.36;74.71
44148;BME280;29810;55.848;37.368;2023-03-07T04:40:53;97720.28;;;-3.37;74.49
44148;BME280;29810;55.848;37.368;2023-03-07T04:43:54;97715.28;;;-3.53;74.78
44148;BME280;29810;55.848;37.368;2023-03-07T04:46:57;97711.84;;;-3.47;74.74
44148;BME280;29810;55.848;37.368;2023-03-07T04:49:58;97716.13;;;-3.52;74.64
44148;BME280;29810;55.848;37.368;2023-03-07T04:53:00;97720.31;;;-3.40;74.73
44148;BME280;29810;55.848;37.368;2023-03-07T04:56:04;97731.25;;;-3.24;74.52
44148;BME280;29810;55.848;37.368;2023-03-07T04:59:07;97729.53;;;-3.19;73.99
44148;BME280;29810;55.848;37.368;2023-03-07T05:02:11;97730.41;;;-3.23;73.65
44148;BME280;29810;55.848;37.368;2023-03-07T05:05:15;97732.91;;;-3.14;73.70
44148;BME280;29810;55.848;37.368;2023-03-07T05:08:17;97729.44;;;-3.01;73.43
44148;BME280;29810;55.848;37.368;2023-03-07T05:11:20;97730.31;;;-3.06;72.70
44148;BME280;29810;55.848;37.368;2023-03-07T05:14:22;97730.34;;;-3.09;72.72
44148;BME280;29810;55.848;37.368;2023-03-07T05:17:24;97739.63;;;-3.01;72.83
44148;BME280;29810;55.848;37.368;2023-03-07T05:20:26;97749.75;;;-2.87;72.73
44148;BME280;29810;55.848;37.368;2023-03-07T05:23:28;97753.03;;;-2.71;72.31
44148;BME280;29810;55.848;37.368;2023-03-07T05:26:30;97758.16;;;-2.71;71.83
44148;BME280;29810;55.848;37.368;2023-03-07T05:29:32;97746.25;;;-2.69;71.74
44148;BME280;29810;55.848;37.368;2023-03-07T05:32:33;97758.06;;;-2.61;70.72
44148;BME280;29810;55.848;37.368;2023-03-07T05:35:35;97755.47;;;-2.51;71.16
44148;BME280;29810;55.848;37.368;2023-03-07T05:38:38;97765.63;;;-2.43;70.58
44148;BME280;29810;55.848;37.368;2023-03-07T05:41:40;97765.53;;;-2.34;70.59
44148;BME280;29810;55.848;37.368;2023-03-07T05:44:42;97758.78;;;-2.42;69.49
44148;BME280;29810;55.848;37.368;2023-03-07T05:47:43;97761.25;;;-2.31;70.07
44148;BME280;29810;55.848;37.368;2023-03-07T05:50:46;97766.91;;;-1.97;69.77
44148;BME280;29810;55.848;37.368;2023-03-07T05:53:50;97759.87;;;-1.78;68.95
44148;BME280;29810;55.848;37.368;2023-03-07T05:56:51;97763.31;;;-1.80;68.01
44148;BME280;29810;55.848;37.368;2023-03-07T05:59:53;97767.72;;;-1.95;68.36
44148;BME280;29810;55.848;37.368;2023-03-07T06:02:55;97768.41;;;-1.77;68.63
44148;BME280;29810;55.848;37.368;2023-03-07T06:05:57;97773.41;;;-1.67;67.88
44148;BME280;29810;55.848;37.368;2023-03-07T06:08:58;97767.28;;;-1.53;67.52
44148;BME280;29810;55.848;37.368;2023-03-07T06:12:00;97761.97;;;-1.33;66.67
44148;BME280;29810;55.848;37.368;2023-03-07T06:15:02;97782.69;;;-0.89;66.09
44148;BME280;29810;55.848;37.368;2023-03-07T06:18:04;97775.06;;;-0.35;64.67
44148;BME280;29810;55.848;37.368;2023-03-07T06:21:07;97771.78;;;-0.43;63.39
44148;BME280;29810;55.848;37.368;2023-03-07T06:24:10;97784.38;;;-0.88;64.47
44148;BME280;29810;55.848;37.368;2023-03-07T06:27:11;97783.91;;;-1.15;66.12
44148;BME280;29810;55.848;37.368;2023-03-07T06:30:14;97792.50;;;-1.22;66.58
44148;BME280;29810;55.848;37.368;2023-03-07T06:33:16;97795.66;;;-1.02;66.57
44148;BME280;29810;55.848;37.368;2023-03-07T06:36:18;97793.03;;;-0.97;65.92
44148;BME280;29810;55.848;37.368;2023-03-07T06:39:21;97797.44;;;-1.10;65.48
44148;BME280;29810;55.848;37.368;2023-03-07T06:42:23;97775.66;;;-1.40;65.82
44148;BME280;29810;55.848;37.368;2023-03-07T06:45:25;97805.16;;;-1.11;65.74
44148;BME280;29810;55.848;37.368;2023-03-07T06:48:27;97794.91;;;-1.10;65.39
44148;BME280;29810;55.848;37.368;2023-03-07T06:51:29;97806.97;;;-0.56;63.56
44148;BME280;29810;55.848;37.368;2023-03-07T06:54:31;97805.53;;;-0.74;62.94
44148;BME280;29810;55.848;37.368;2023-03-07T06:57:33;97795.94;;;-0.59;62.91
44148;BME280;29810;55.848;37.368;2023-03-07T07:00:38;97804.69;;;-0.18;62.83
44148;BME280;29810;55.848;37.368;2023-03-07T07:03:39;97805.34;;;-0.05;62.38
44148;BME280;29810;55.848;37.368;2023-03-07T07:06:41;97806.13;;;-0.02;61.30
44148;BME280;29810;55.848;37.368;2023-03-07T07:09:43;97799.16;;;0.07;62.11
44148;BME280;29810;55.848;37.368;2023-03-07T07:12:45;97801.72;;;-0.46;61.89
44148;BME280;29810;55.848;37.368;2023-03-07T07:15:47;97797.63;;;-0.58;62.40
44148;BME280;29810;55.848;37.368;2023-03-07T07:18:49;97805.97;;;-0.45;62.45
44148;BME280;29810;55.848;37.368;2023-03-07T07:21:52;97792.00;;;-0.26;62.97
44148;BME280;29810;55.848;37.368;2023-03-07T07:24:54;97801.00;;;0.00;62.14
44148;BME280;29810;55.848;37.368;2023-03-07T07:27:56;97808.63;;;0.03;62.38
44148;BME280;29810;55.848;37.368;2023-03-07T07:30:58;97808.41;;;0.15;62.03
44148;BME280;29810;55.848;37.368;2023-03-07T07:34:00;97794.38;;;0.35;61.28
44148;BME280;29810;55.848;37.368;2023-03-07T07:37:03;97801.59;;;0.60;61.59
44148;BME280;29810;55.848;37.368;2023-03-07T07:40:06;97799.75;;;0.68;61.64
44148;BME280;29810;55.848;37.368;2023-03-07T07:43:14;97798.75;;;0.75;60.97
44148;BME280;29810;55.848;37.368;2023-03-07T07:46:18;97789.16;;;0.85;59.73
44148;BME280;29810;55.848;37.368;2023-03-07T07:49:20;97786.41;;;0.51;59.58
44148;BME280;29810;55.848;37.368;2023-03-07T07:52:21;97810.00;;;0.70;59.98
44148;BME280;29810;55.848;37.368;2023-03-07T07:55:24;97807.53;;;1.06;59.96
44148;BME280;29810;55.848;37.368;2023-03-07T07:58:26;97812.56;;;1.51;58.70
44148;BME280;29810;55.848;37.368;2023-03-07T08:01:29;97803.16;;;1.11;56.78
44148;BME280;29810;55.848;37.368;2023-03-07T08:04:30;97803.97;;;1.13;59.16
44148;BME280;29810;55.848;37.368;2023-03-07T08:07:32;97805.13;;;0.98;57.78
44148;BME280;29810;55.848;37.368;2023-03-07T08:10:34;97808.63;;;1.36;59.02
44148;BME280;29810;55.848;37.368;2023-03-07T08:13:36;97798.72;;;1.57;58.45
44148;BME280;29810;55.848;37.368;2023-03-07T08:16:38;97797.47;;;1.36;58.16
44148;BME280;29810;55.848;37.368;2023-03-07T08:19:39;97799.50;;;1.21;58.83
44148;BME280;29810;55.848;37.368;2023-03-07T08:22:41;97790.50;;;1.02;58.72
44148;BME280;29810;55.848;37.368;2023-03-07T08:25:44;97795.00;;;0.48;59.47
44148;BME280;29810;55.848;37.368;2023-03-07T08:28:46;97792.22;;;0.60;59.67
44148;BME280;29810;55.848;37.368;2023-03-07T08:31:48;97791.16;;;0.69;59.72
44148;BME280;29810;55.848;37.368;2023-03-07T08:34:52;97794.22;;;0.88;59.47
44148;BME280;29810;55.848;37.368;2023-03-07T08:37:57;97796.41;;;0.64;59.45
44148;BME280;29810;55.848;37.368;2023-03-07T08:41:01;97796.28;;;0.71;59.63
44148;BME280;29810;55.848;37.368;2023-03-07T08:44:04;97802.97;;;0.78;59.45
44148;BME280;29810;55.848;37.368;2023-03-07T08:47:06;97792.72;;;0.78;59.48
44148;BME280;29810;55.848;37.368;2023-03-07T08:50:08;97790.72;;;0.92;59.82
44148;BME280;29810;55.848;37.368;2023-03-07T08:53:09;97774.56;;;0.87;59.26
44148;BME280;29810;55.848;37.368;2023-03-07T08:56:13;97754.34;;;0.72;58.72
44148;BME280;29810;55.848;37.368;2023-03-07T08:59:15;97780.38;;;0.53;59.24
44148;BME280;29810;55.848;37.368;2023-03-07T09:02:17;97780.72;;;0.80;59.54
44148;BME280;29810;55.848;37.368;2023-03-07T09:05:18;97777.63;;;1.03;59.17
44148;BME280;29810;55.848;37.368;2023-03-07T09:08:20;97788.38;;;1.22;58.69
44148;BME280;29810;55.848;37.368;2023-03-07T09:11:22;97774.66;;;1.23;58.09
44148;BME280;29810;55.848;37.368;2023-03-07T09:14:23;97772.00;;;1.26;58.52
44148;BME280;29810;55.848;37.368;2023-03-07T09:17:25;97755.72;;;1.27;58.90
44148;BME280;29810;55.848;37.368;2023-03-07T09:20:26;97773.31;;;1.44;57.92
44148;BME280;29810;55.848;37.368;2023-03-07T09:23:28;97773.94;;;1.54;58.18
44148;BME280;29810;55.848;37.368;2023-03-07T09:26:30;97781.44;;;1.63;57.67
44148;BME280;29810;55.848;37.368;2023-03-07T09:29:31;97771.78;;;1.73;57.90
44148;BME280;29810;55.848;37.368;2023-03-07T09:32:33;97771.66;;;1.79;58.07
44148;BME280;29810;55.848;37.368;2023-03-07T09:35:37;97775.63;;;1.91;57.36
44148;BME280;29810;55.848;37.368;2023-03-07T09:38:39;97772.97;;;1.94;56.84
44148;BME280;29810;55.848;37.368;2023-03-07T09:48:17;97769.88;;;1.81;56.26
44148;BME280;29810;55.848;37.368;2023-03-07T09:51:30;97772.38;;;1.85;55.96
44148;BME280;29810;55.848;37.368;2023-03-07T09:54:45;97772.62;;;1.74;56.30
44148;BME280;29810;55.848;37.368;2023-03-07T09:57:53;97769.75;;;1.86;56.40
44148;BME280;29810;55.848;37.368;2023-03-07T10:00:58;97767.34;;;2.14;55.89
44148;BME280;29810;55.848;37.368;2023-03-07T10:04:04;97767.91;;;1.91;55.50
44148;BME280;29810;55.848;37.368;2023-03-07T10:07:08;97773.25;;;1.84;55.67
44148;BME280;29810;55.848;37.368;2023-03-07T10:10:16;97763.38;;;1.67;55.64
44148;BME280;29810;55.848;37.368;2023-03-07T10:16:35;97754.66;;;2.40;56.16
44148;BME280;29810;55.848;37.368;2023-03-07T10:19:50;97755.25;;;2.81;54.25
44148;BME280;29810;55.848;37.368;2023-03-07T10:27:03;97749.88;;;3.45;51.64
44148;BME280;29810;55.848;37.368;2023-03-07T10:29:53;97747.44;;;3.41;52.05
44148;BME280;29810;55.848;37.368;2023-03-07T10:32:56;97737.22;;;2.81;50.41
44148;BME280;29810;55.848;37.368;2023-03-07T10:36:09;97740.66;;;2.50;51.06
44148;BME280;29810;55.848;37.368;2023-03-07T10:39:33;97742.63;;;2.42;51.13
44148;BME280;29810;55.848;37.368;2023-03-07T10:42:37;97735.31;;;2.26;51.70
44148;BME280;29810;55.848;37.368;2023-03-07T10:45:41;97732.31;;;2.73;51.91
44148;BME280;29810;55.848;37.368;2023-03-07T10:48:52;97731.00;;;2.88;50.27
44148;BME280;29810;55.848;37.368;2023-03-07T10:51:59;97731.50;;;3.28;49.49
44148;BME280;29810;55.848;37.368;2023-03-07T10:55:37;97722.69;;;3.63;48.22
44148;BME280;29810;55.848;37.368;2023-03-07T10:58:39;97714.34;;;4.07;49.64
44148;BME280;29810;55.848;37.368;2023-03-07T11:02:00;97719.94;;;3.95;48.09
44148;BME280;29810;55.848;37.368;2023-03-07T11:05:20;97705.41;;;3.65;47.76
44148;BME280;29810;55.848;37.368;2023-03-07T11:08:33;97710.94;;;4.07;46.83
44148;BME280;29810;55.848;37.368;2023-03-07T11:11:37;97699.50;;;3.89;46.83
44148;BME280;29810;55.848;37.368;2023-03-07T11:14:50;97686.38;;;4.20;46.47
44148;BME280;29810;55.848;37.368;2023-03-07T11:17:52;97709.19;;;3.82;45.37
44148;BME280;29810;55.848;37.368;2023-03-07T11:20:54;97698.84;;;3.57;45.79
44148;BME280;29810;55.848;37.368;2023-03-07T11:28:19;97710.88;;;3.29;46.30
44148;BME280;29810;55.848;37.368;2023-03-07T11:37:32;97720.66;;;2.60;47.35
44148;BME280;29810;55.848;37.368;2023-03-07T11:41:22;97720.00;;;2.83;48.59
44148;BME280;29810;55.848;37.368;2023-03-07T11:44:51;97718.84;;;2.93;46.31
44148;BME280;29810;55.848;37.368;2023-03-07T11:52:04;97718.75;;;2.67;45.24
44148;BME280;29810;55.848;37.368;2023-03-07T11:55:25;97720.25;;;2.74;48.60
44148;BME280;29810;55.848;37.368;2023-03-07T11:58:53;97721.50;;;3.19;48.65
44148;BME280;29810;55.848;37.368;2023-03-07T12:02:01;97718.84;;;2.93;45.89
44148;BME280;29810;55.848;37.368;2023-03-07T12:18:50;97710.72;;;3.07;48.81
44148;BME280;29810;55.848;37.368;2023-03-07T12:22:22;97711.91;;;2.95;48.84
44148;BME280;29810;55.848;37.368;2023-03-07T12:25:35;97707.91;;;3.15;49.20
44148;BME280;29810;55.848;37.368;2023-03-07T12:28:48;97702.34;;;3.27;48.74
44148;BME280;29810;55.848;37.368;2023-03-07T12:31:56;97712.53;;;3.32;48.13
44148;BME280;29810;55.848;37.368;2023-03-07T12:35:04;97711.38;;;3.41;47.51
44148;BME280;29810;55.848;37.368;2023-03-07T12:38:11;97707.97;;;3.40;46.83
44148;BME280;29810;55.848;37.368;2023-03-07T12:41:32;97709.66;;;3.41;52.55
44148;BME280;29810;55.848;37.368;2023-03-07T12:44:43;97711.31;;;3.42;51.18
44148;BME280;29810;55.848;37.368;2023-03-07T12:51:05;97703.28;;;2.96;49.36
44148;BME280;29810;55.848;37.368;2023-03-07T12:54:11;97700.66;;;2.70;48.65
44148;BME280;29810;55.848;37.368;2023-03-07T12:57:18;97699.13;;;2.32;48.10
44148;BME280;29810;55.848;37.368;2023-03-07T13:00:23;97699.25;;;2.28;49.05
44148;BME280;29810;55.848;37.368;2023-03-07T13:06:43;97699.25;;;2.28;50.08
44148;BME280;29810;55.848;37.368;2023-03-07T13:09:46;97700.28;;;2.22;49.08
44148;BME280;29810;55.848;37.368;2023-03-07T13:12:50;97696.00;;;2.21;49.34
44148;BME280;29810;55.848;37.368;2023-03-07T13:16:29;97702.28;;;2.11;48.89
44148;BME280;29810;55.848;37.368;2023-03-07T13:25:43;97703.41;;;2.01;49.82
44148;BME280;29810;55.848;37.368;2023-03-07T13:28:49;97701.09;;;1.91;48.39
44148;BME280;29810;55.848;37.368;2023-03-07T13:31:52;97699.31;;;1.93;50.07
44148;BME280;29810;55.848;37.368;2023-03-07T13:34:54;97708.81;;;1.91;49.27
44148;BME280;29810;55.848;37.368;2023-03-07T13:41:57;97697.56;;;1.95;49.68
44148;BME280;29810;55.848;37.368;2023-03-07T13:44:58;97700.72;;;1.72;48.82
44148;BME280;29810;55.848;37.368;2023-03-07T13:48:00;97699.59;;;1.48;49.37
44148;BME280;29810;55.848;37.368;2023-03-07T13:51:07;97697.97;;;1.45;49.74
44148;BME280;29810;55.848;37.368;2023-03-07T13:54:12;97703.47;;;1.30;48.90
44148;BME280;29810;55.848;37.368;2023-03-07T13:57:19;97685.53;;;1.28;50.08
44148;BME280;29810;55.848;37.368;2023-03-07T14:00:24;97688.81;;;1.34;49.96
44148;BME280;29810;55.848;37.368;2023-03-07T14:03:41;97694.78;;;1.34;50.33
44148;BME280;29810;55.848;37.368;2023-03-07T14:06:52;97697.41;;;1.32;51.53
44148;BME280;29810;55.848;37.368;2023-03-07T14:10:01;97689.19;;;1.18;52.08
44148;BME280;29810;55.848;37.368;2023-03-07T14:26:55;97707.03;;;0.85;56.49
44148;BME280;29810;55.848;37.368;2023-03-07T14:29:58;97709.78;;;0.76;57.19
44148;BME280;29810;55.848;37.368;2023-03-07T14:33:01;97709.31;;;0.58;57.84
44148;BME280;29810;55.848;37.368;2023-03-07T14:36:17;97696.72;;;0.47;58.42
44148;BME280;29810;55.848;37.368;2023-03-07T14:39:20;97705.19;;;0.51;59.39
44148;BME280;29810;55.848;37.368;2023-03-07T14:42:45;97698.56;;;0.41;59.21
44148;BME280;29810;55.848;37.368;2023-03-07T14:49:42;97718.31;;;0.36;59.94
44148;BME280;29810;55.848;37.368;2023-03-07T14:52:47;97709.94;;;0.26;59.59
44148;BME280;29810;55.848;37.368;2023-03-07T14:55:52;97710.06;;;0.20;59.55
44148;BME280;29810;55.848;37.368;2023-03-07T14:59:01;97705.97;;;0.11;60.03
44148;BME280;29810;55.848;37.368;2023-03-07T15:02:16;97718.81;;;0.09;60.02
44148;BME280;29810;55.848;37.368;2023-03-07T15:05:31;97708.53;;;0.11;60.54
44148;BME280;29810;55.848;37.368;2023-03-07T15:08:35;97711.12;;;0.08;60.57
44148;BME280;29810;55.848;37.368;2023-03-07T15:11:39;97719.72;;;0.07;60.46
44148;BME280;29810;55.848;37.368;2023-03-07T15:14:47;97722.16;;;0.13;60.98
44148;BME280;29810;55.848;37.368;2023-03-07T15:17:55;97690.87;;;-0.05;60.65
44148;BME280;29810;55.848;37.368;2023-03-07T15:21:02;97722.28;;;0.07;60.51
44148;BME280;29810;55.848;37.368;2023-03-07T15:24:05;97718.88;;;0.05;60.91
44148;BME280;29810;55.848;37.368;2023-03-07T15:27:16;97717.19;;;0.04;60.03
44148;BME280;29810;55.848;37.368;2023-03-07T15:30:30;97720.59;;;0.06;60.33
44148;BME280;29810;55.848;37.368;2023-03-07T15:33:33;97717.97;;;0.09;60.21
44148;BME280;29810;55.848;37.368;2023-03-07T15:36:35;97717.19;;;0.04;59.75
44148;BME280;29810;55.848;37.368;2023-03-07T15:39:41;97721.53;;;0.02;59.98
44148;BME280;29810;55.848;37.368;2023-03-07T15:42:49;97727.59;;;-0.03;59.65
44148;BME280;29810;55.848;37.368;2023-03-07T15:46:14;97726.72;;;-0.03;59.90
44148;BME280;29810;55.848;37.368;2023-03-07T15:55:30;97733.78;;;-0.16;58.75
44148;BME280;29810;55.848;37.368;2023-03-07T15:58:34;97729.50;;;-0.17;59.01
44148;BME280;29810;55.848;37.368;2023-03-07T16:01:37;97729.56;;;-0.20;59.16
44148;BME280;29810;55.848;37.368;2023-03-07T16:04:41;97651.06;;;-0.71;59.42
44148;BME280;29810;55.848;37.368;2023-03-07T16:07:44;97691.47;;;-0.39;59.58
44148;BME280;29810;55.848;37.368;2023-03-07T16:10:52;97729.47;;;-0.14;60.49
44148;BME280;29810;55.848;37.368;2023-03-07T16:13:58;97729.63;;;-0.23;61.60
44148;BME280;29810;55.848;37.368;2023-03-07T16:17:55;97731.44;;;-0.28;62.02
44148;BME280;29810;55.848;37.368;2023-03-07T16:20:32;97728.03;;;-0.30;63.56
44148;BME280;29810;55.848;37.368;2023-03-07T16:23:34;97732.38;;;-0.32;63.25
44148;BME280;29810;55.848;37.368;2023-03-07T16:26:37;97651.31;;;-0.88;63.68
44148;BME280;29810;55.848;37.368;2023-03-07T16:29:40;97737.53;;;-0.37;64.45
44148;BME280;29810;55.848;37.368;2023-03-07T16:32:42;97728.25;;;-0.43;64.93
44148;BME280;29810;55.848;37.368;2023-03-07T16:35:44;97734.19;;;-0.41;65.32
44148;BME280;29810;55.848;37.368;2023-03-07T16:38:46;97684.28;;;-0.70;65.44
44148;BME280;29810;55.848;37.368;2023-03-07T16:41:50;97726.50;;;-0.41;65.82
44148;BME280;29810;55.848;37.368;2023-03-07T16:44:51;97729.06;;;-0.41;65.96
44148;BME280;29810;55.848;37.368;2023-03-07T16:47:59;97731.72;;;-0.45;66.34
44148;BME280;29810;55.848;37.368;2023-03-07T16:51:03;97731.94;;;-0.59;67.52
44148;BME280;29810;55.848;37.368;2023-03-07T16:54:07;97734.56;;;-0.64;67.29
44148;BME280;29810;55.848;37.368;2023-03-07T16:57:13;97741.72;;;-0.88;67.88
44148;BME280;29810;55.848;37.368;2023-03-07T17:00:22;97736.53;;;-0.81;68.61
44148;BME280;29810;55.848;37.368;2023-03-07T17:03:25;97741.62;;;-0.78;68.47
44148;BME280;29810;55.848;37.368;2023-03-07T17:06:27;97741.59;;;-0.77;67.81
44148;BME280;29810;55.848;37.368;2023-03-07T17:09:29;97736.41;;;-0.74;67.32
44148;BME280;29810;55.848;37.368;2023-03-07T17:12:32;97734.69;;;-0.72;67.20
44148;BME280;29810;55.848;37.368;2023-03-07T17:15:34;97731.31;;;-0.75;66.87
44148;BME280;29810;55.848;37.368;2023-03-07T17:18:37;97744.09;;;-0.74;66.69
44148;BME280;29810;55.848;37.368;2023-03-07T17:21:39;97739.88;;;-0.78;66.67
44148;BME280;29810;55.848;37.368;2023-03-07T17:24:44;97751.00;;;-0.79;66.72
44148;BME280;29810;55.848;37.368;2023-03-07T17:27:52;97712.03;;;-1.00;66.67
44148;BME280;29810;55.848;37.368;2023-03-07T17:31:07;97739.06;;;-0.78;66.56
44148;BME280;29810;55.848;37.368;2023-03-07T17:34:18;97739.19;;;-0.89;67.11
44148;BME280;29810;55.848;37.368;2023-03-07T17:37:22;97694.63;;;-1.32;67.40
44148;BME280;29810;55.848;37.368;2023-03-07T17:40:24;97748.94;;;-1.14;67.28
44148;BME280;29810;55.848;37.368;2023-03-07T17:43:26;97752.53;;;-1.28;67.74